Time;durP1;ratioP1;P1;durP2;ratioP2;P2;SDS_P1;SDS_P2;PMS_P1;PMS_P2;Temp;Humidity;BMP_temperature;BMP_pressure;BME280_temperature;BME280_humidity;BME280_pressure;Samples;Min_cycle;Max_cycle;Signal;HPM_P1;HPM_P2
2022/01/28 00:01:04;;;;;;;;;;;5.30;99.90;;;;;;5096180;28;20022;-57
2022/01/28 00:03:31;;;;;;;;;;;5.30;99.90;;;;;;5096375;28;20294;-57
2022/01/28 00:05:56;;;;;;;;;;;5.30;99.90;;;;;;5096415;28;19910;-58
2022/01/28 00:08:22;;;;;;;;;;;5.30;99.90;;;;;;5095910;28;19911;-58
2022/01/28 00:10:50;;;;;;;;;;;5.30;99.90;;;;;;5096659;28;20306;-58
2022/01/28 00:13:24;;;;;;;;;;;5.30;99.90;;;;;;5095912;28;19915;-59
2022/01/28 00:18:55;;;;;;;;;;;5.20;99.90;;;;;;5096113;28;20352;-60
2022/01/28 00:38:01;;;;;;;;;;;5.30;99.90;;;;;;5095290;28;19961;-59
2022/01/28 00:40:27;;;;;;;;;;;5.30;99.90;;;;;;5095968;28;20338;-59
2022/01/28 00:42:52;;;;;;;;;;;5.30;99.90;;;;;;5095064;28;19922;-59
2022/01/28 00:45:18;;;;;;;;;;;5.40;99.90;;;;;;5095489;28;19907;-60
2022/01/28 00:47:44;;;;;;;;;;;5.30;99.90;;;;;;5096011;28;19991;-59
2022/01/28 00:50:10;;;;;;;;;;;5.30;99.90;;;;;;5095151;28;19991;-59
2022/01/28 00:52:35;;;;;;;;;;;5.30;99.90;;;;;;5095848;28;19904;-59
2022/01/28 00:55:01;;;;;;;;;;;5.30;99.90;;;;;;5095488;28;19904;-61
2022/01/28 00:57:27;;;;;;;;;;;5.30;99.90;;;;;;5094918;28;19948;-61
2022/01/28 00:59:53;;;;;;;;;;;5.30;99.90;;;;;;5095221;28;19923;-60
2022/01/28 01:02:18;;;;;;;;;;;5.30;99.90;;;;;;5094838;28;19958;-59
2022/01/28 01:04:44;;;;;;;;;;;5.40;99.90;;;;;;5092704;28;19935;-60
2022/01/28 01:07:09;;;;;;;;;;;5.40;99.90;;;;;;5094199;28;19912;-61
2022/01/28 01:09:35;;;;;;;;;;;5.40;99.90;;;;;;5094791;28;19904;-60
2022/01/28 01:12:01;;;;;;;;;;;5.40;99.90;;;;;;5093792;28;19904;-61
2022/01/28 01:14:26;;;;;;;;;;;5.40;99.90;;;;;;5094157;28;19911;-59
2022/01/28 01:19:41;;;;;;;;;;;5.40;99.90;;;;;;5093665;28;20002;-60
2022/01/28 01:22:08;;;;;;;;;;;5.50;99.90;;;;;;5094310;28;19957;-60
2022/01/28 01:24:37;;;;;;;;;;;5.50;99.90;;;;;;5093921;28;19916;-59
2022/01/28 01:27:03;;;;;;;;;;;5.50;99.90;;;;;;5093168;28;20416;-62
2022/01/28 01:29:29;;;;;;;;;;;5.50;99.90;;;;;;5093946;28;19904;-60
2022/01/28 01:32:03;;;;;;;;;;;5.50;99.90;;;;;;5094259;28;20270;-61
2022/01/28 01:34:28;;;;;;;;;;;5.50;99.90;;;;;;5093715;28;19908;-59
2022/01/28 01:36:54;;;;;;;;;;;5.60;99.90;;;;;;5094074;28;20401;-64
2022/01/28 01:39:24;;;;;;;;;;;5.70;99.90;;;;;;5093430;28;19996;-61
2022/01/28 01:42:07;;;;;;;;;;;5.70;99.90;;;;;;5093981;28;19961;-60
2022/01/28 01:52:44;;;;;;;;;;;5.70;99.90;;;;;;5094730;28;20286;-61
2022/01/28 01:55:09;;;;;;;;;;;5.60;99.90;;;;;;5093501;28;19916;-62
2022/01/28 01:57:35;;;;;;;;;;;5.60;99.90;;;;;;5094621;28;19904;-60
2022/01/28 02:00:01;;;;;;;;;;;5.60;99.90;;;;;;5094478;28;19904;-60
2022/01/28 02:02:26;;;;;;;;;;;5.60;99.90;;;;;;5093390;28;19965;-61
2022/01/28 02:04:51;;;;;;;;;;;5.70;99.90;;;;;;5093855;28;19999;-60
2022/01/28 02:07:17;;;;;;;;;;;5.70;99.90;;;;;;5093593;28;19904;-59
2022/01/28 02:09:43;;;;;;;;;;;5.70;99.90;;;;;;5094354;28;20375;-62
2022/01/28 02:12:09;;;;;;;;;;;5.70;99.90;;;;;;5094309;28;20355;-59
2022/01/28 02:14:34;;;;;;;;;;;5.60;99.90;;;;;;5092573;28;19908;-61
2022/01/28 02:17:01;;;;;;;;;;;5.60;99.90;;;;;;5094111;28;19915;-63
2022/01/28 02:19:27;;;;;;;;;;;5.60;99.90;;;;;;5094180;28;19986;-61
2022/01/28 02:21:53;;;;;;;;;;;5.50;99.90;;;;;;5093135;28;19904;-60
2022/01/28 02:24:25;;;;;;;;;;;5.50;99.90;;;;;;5093937;28;19911;-60
2022/01/28 02:26:51;;;;;;;;;;;5.50;99.90;;;;;;5093637;28;19926;-61
2022/01/28 02:29:26;;;;;;;;;;;5.60;99.90;;;;;;5093345;28;20266;-60
2022/01/28 02:31:52;;;;;;;;;;;5.60;99.90;;;;;;5094028;28;19908;-60
2022/01/28 02:34:17;;;;;;;;;;;5.60;99.90;;;;;;5093631;28;20362;-60
2022/01/28 02:36:43;;;;;;;;;;;5.70;99.90;;;;;;5092864;28;19927;-61
2022/01/28 02:39:10;;;;;;;;;;;5.70;99.90;;;;;;5093671;28;19904;-60
2022/01/28 02:41:40;;;;;;;;;;;5.70;99.90;;;;;;5093749;28;20282;-61
2022/01/28 02:44:17;;;;;;;;;;;5.70;99.90;;;;;;5092495;28;20298;-60
2022/01/28 02:46:55;;;;;;;;;;;5.70;99.90;;;;;;5093819;28;19904;-61
2022/01/28 02:49:21;;;;;;;;;;;5.80;99.90;;;;;;5093144;28;19908;-62
2022/01/28 02:51:47;;;;;;;;;;;5.80;99.90;;;;;;5093662;28;19958;-61
2022/01/28 02:54:15;;;;;;;;;;;5.80;99.90;;;;;;5093319;28;20110;-61
2022/01/28 02:56:49;;;;;;;;;;;5.80;99.90;;;;;;5092808;28;19911;-61
2022/01/28 02:59:14;;;;;;;;;;;5.80;99.90;;;;;;5093459;28;19957;-61
2022/01/28 03:01:40;;;;;;;;;;;5.90;99.90;;;;;;5093154;28;19907;-62
2022/01/28 03:04:08;;;;;;;;;;;5.80;99.90;;;;;;5092287;28;19919;-61
2022/01/28 03:06:34;;;;;;;;;;;5.80;99.90;;;;;;5093286;28;19947;-60
2022/01/28 03:09:07;;;;;;;;;;;5.80;99.90;;;;;;5093210;28;20362;-60
2022/01/28 03:14:17;;;;;;;;;;;5.90;99.90;;;;;;5092765;28;20006;-61
2022/01/28 03:17:00;;;;;;;;;;;5.80;99.90;;;;;;5093252;28;19903;-60
2022/01/28 03:19:29;;;;;;;;;;;5.80;99.90;;;;;;5092370;28;19911;-62
2022/01/28 03:21:56;;;;;;;;;;;5.90;99.90;;;;;;5092987;28;19904;-61
2022/01/28 03:24:23;;;;;;;;;;;5.80;99.90;;;;;;5092740;28;19950;-59
2022/01/28 03:26:52;;;;;;;;;;;5.80;99.90;;;;;;5091284;28;19920;-60
2022/01/28 03:29:17;;;;;;;;;;;5.80;99.90;;;;;;5092984;28;19939;-60
2022/01/28 03:31:43;;;;;;;;;;;5.70;99.90;;;;;;5092139;28;19967;-60
2022/01/28 03:34:08;;;;;;;;;;;5.80;99.90;;;;;;5092660;28;19908;-61
2022/01/28 03:36:34;;;;;;;;;;;5.70;99.90;;;;;;5092516;28;19908;-60
2022/01/28 03:38:59;;;;;;;;;;;5.70;99.90;;;;;;5092232;28;19904;-60
2022/01/28 03:41:25;;;;;;;;;;;5.70;99.90;;;;;;5092322;28;20354;-61
2022/01/28 03:43:57;;;;;;;;;;;5.70;99.90;;;;;;5092212;28;19955;-60
2022/01/28 03:46:24;;;;;;;;;;;5.70;99.90;;;;;;5092049;28;19950;-59
2022/01/28 03:48:49;;;;;;;;;;;5.70;99.90;;;;;;5092824;28;20268;-61
2022/01/28 03:51:14;;;;;;;;;;;5.70;99.90;;;;;;5092714;28;19904;-60
2022/01/28 03:53:40;;;;;;;;;;;5.80;99.90;;;;;;5091756;28;20404;-61
2022/01/28 03:56:05;;;;;;;;;;;5.80;99.90;;;;;;5092813;28;20344;-60
2022/01/28 03:58:31;;;;;;;;;;;5.70;99.90;;;;;;5092662;28;19951;-60
2022/01/28 04:00:57;;;;;;;;;;;5.70;99.90;;;;;;5091741;28;19911;-59
2022/01/28 04:03:39;;;;;;;;;;;5.70;99.90;;;;;;5092226;28;20089;-60
2022/01/28 04:11:26;;;;;;;;;;;5.70;99.90;;;;;;5092455;28;20364;-60
2022/01/28 04:11:37;;;;;;;;;;;5.70;99.90;;;;;;5092459;28;19911;-60
2022/01/28 04:14:19;;;;;;;;;;;5.80;99.90;;;;;;5091489;28;19945;-61
2022/01/28 04:19:29;;;;;;;;;;;5.80;99.90;;;;;;5092596;28;19911;-60
2022/01/28 04:21:54;;;;;;;;;;;5.80;99.90;;;;;;5091178;28;19905;-60
2022/01/28 04:24:19;;;;;;;;;;;5.80;99.90;;;;;;5092215;28;19914;-60
2022/01/28 04:26:45;;;;;;;;;;;5.80;99.90;;;;;;5091971;28;19977;-61
2022/01/28 04:29:12;;;;;;;;;;;5.70;99.90;;;;;;5091496;28;19904;-60
2022/01/28 04:31:42;;;;;;;;;;;5.70;99.90;;;;;;5092594;28;19904;-60
2022/01/28 04:34:07;;;;;;;;;;;5.70;99.90;;;;;;5092131;28;19915;-61
2022/01/28 04:36:37;;;;;;;;;;;5.60;99.90;;;;;;5091143;28;19904;-59
2022/01/28 04:39:14;;;;;;;;;;;5.70;99.90;;;;;;5094878;28;19957;-61
2022/01/28 04:41:58;;;;;;;;;;;5.70;99.90;;;;;;5095712;28;19905;-60
2022/01/28 04:44:34;;;;;;;;;;;5.70;99.90;;;;;;5090455;28;19920;-60
2022/01/28 04:47:10;;;;;;;;;;;5.70;99.90;;;;;;5096000;28;19911;-61
2022/01/28 04:49:49;;;;;;;;;;;5.70;99.90;;;;;;5095205;28;19911;-60
2022/01/28 05:00:29;;;;;;;;;;;5.60;99.90;;;;;;5095609;28;19904;-60
2022/01/28 05:08:59;;;;;;;;;;;5.60;99.90;;;;;;5095592;28;19907;-61
2022/01/28 05:11:41;;;;;;;;;;;5.60;99.90;;;;;;5094481;28;19904;-61
2022/01/28 05:27:12;;;;;;;;;;;5.30;99.90;;;;;;5094985;28;20003;-60
2022/01/28 05:29:39;;;;;;;;;;;5.30;99.90;;;;;;5095254;28;19903;-61
2022/01/28 05:32:08;;;;;;;;;;;5.20;99.90;;;;;;5094185;28;19903;-61
2022/01/28 05:34:33;;;;;;;;;;;5.20;99.90;;;;;;5074817;28;20079;-61
2022/01/28 05:36:59;;;;;;;;;;;5.10;99.90;;;;;;5074794;28;20044;-61
2022/01/28 05:39:24;;;;;;;;;;;5.10;99.90;;;;;;5077302;28;19960;-61
2022/01/28 05:41:50;;;;;;;;;;;5.10;99.90;;;;;;5094925;28;19904;-60
2022/01/28 05:44:15;;;;;;;;;;;5.00;99.90;;;;;;5094251;28;19953;-60
2022/01/28 05:46:41;;;;;;;;;;;5.00;99.90;;;;;;5093844;28;19904;-61
2022/01/28 05:49:07;;;;;;;;;;;4.90;99.90;;;;;;5094253;28;19904;-60
2022/01/28 05:51:33;;;;;;;;;;;4.90;99.90;;;;;;5094185;28;19904;-60
2022/01/28 05:53:58;;;;;;;;;;;4.90;99.90;;;;;;5093951;28;19916;-61
2022/01/28 05:56:25;;;;;;;;;;;4.90;99.90;;;;;;5094577;28;19961;-61
2022/01/28 05:58:50;;;;;;;;;;;4.80;99.90;;;;;;5094420;28;19904;-60
2022/01/28 06:01:16;;;;;;;;;;;4.90;99.90;;;;;;5093456;28;19950;-62
2022/01/28 06:03:44;;;;;;;;;;;4.80;99.90;;;;;;5094401;28;19915;-60
2022/01/28 06:06:13;;;;;;;;;;;4.80;99.90;;;;;;5094401;28;19903;-61
2022/01/28 06:08:38;;;;;;;;;;;4.90;99.90;;;;;;5093824;28;19910;-60
2022/01/28 06:11:04;;;;;;;;;;;4.90;99.90;;;;;;5094064;28;19994;-60
2022/01/28 06:13:29;;;;;;;;;;;4.90;99.90;;;;;;5093427;28;19943;-61
2022/01/28 06:15:56;;;;;;;;;;;5.00;99.90;;;;;;5094310;28;20380;-60
2022/01/28 06:18:22;;;;;;;;;;;5.10;99.90;;;;;;5094036;28;20283;-61
2022/01/28 06:20:47;;;;;;;;;;;5.10;99.90;;;;;;5093071;28;19912;-60
2022/01/28 06:23:13;;;;;;;;;;;5.20;99.90;;;;;;5093957;28;20014;-60
2022/01/28 06:25:39;;;;;;;;;;;5.20;99.90;;;;;;5094236;28;19935;-61
2022/01/28 06:28:05;;;;;;;;;;;5.30;99.90;;;;;;5092974;28;19970;-62
2022/01/28 06:30:30;;;;;;;;;;;5.30;99.90;;;;;;5093663;28;20278;-60
2022/01/28 06:32:56;;;;;;;;;;;5.40;99.90;;;;;;5093840;28;19949;-62
2022/01/28 06:35:21;;;;;;;;;;;5.40;99.90;;;;;;5093031;28;20113;-60
2022/01/28 06:37:47;;;;;;;;;;;5.50;99.90;;;;;;5093953;28;20274;-61
2022/01/28 06:40:13;;;;;;;;;;;5.60;99.90;;;;;;5093553;28;20359;-61
2022/01/28 06:42:39;;;;;;;;;;;5.60;99.90;;;;;;5092439;28;19911;-61
2022/01/28 06:45:05;;;;;;;;;;;5.60;99.90;;;;;;5093578;28;19904;-61
2022/01/28 06:47:31;;;;;;;;;;;5.60;99.90;;;;;;5093524;28;19904;-61
2022/01/28 06:49:57;;;;;;;;;;;5.70;99.90;;;;;;5092476;28;19908;-61
2022/01/28 06:52:22;;;;;;;;;;;5.70;99.90;;;;;;5093407;28;19908;-60
2022/01/28 06:54:48;;;;;;;;;;;5.70;99.90;;;;;;5093293;28;19958;-60
2022/01/28 06:57:13;;;;;;;;;;;5.70;99.90;;;;;;5092748;28;19908;-61
2022/01/28 06:59:38;;;;;;;;;;;5.70;99.90;;;;;;5092599;28;19938;-61
2022/01/28 07:02:04;;;;;;;;;;;5.70;99.90;;;;;;5093344;28;19939;-60
2022/01/28 07:04:29;;;;;;;;;;;5.60;99.90;;;;;;5089136;28;19921;-61
2022/01/28 07:06:55;;;;;;;;;;;5.60;99.90;;;;;;5081077;28;19910;-61
2022/01/28 07:09:20;;;;;;;;;;;5.50;99.90;;;;;;5082652;28;19994;-61
2022/01/28 07:11:46;;;;;;;;;;;5.50;99.90;;;;;;5081391;28;19947;-61
2022/01/28 07:14:11;;;;;;;;;;;5.40;99.90;;;;;;5081586;28;19994;-60
2022/01/28 07:16:37;;;;;;;;;;;5.30;99.90;;;;;;5079958;28;19919;-62
2022/01/28 07:19:03;;;;;;;;;;;5.20;99.90;;;;;;5084269;28;20396;-60
2022/01/28 07:21:28;;;;;;;;;;;5.20;99.90;;;;;;5083785;28;19908;-62
2022/01/28 07:23:54;;;;;;;;;;;5.10;99.90;;;;;;5092271;28;19919;-60
2022/01/28 07:26:20;;;;;;;;;;;5.00;99.90;;;;;;5092684;28;19911;-61
2022/01/28 07:28:46;;;;;;;;;;;5.00;99.90;;;;;;5093092;28;19908;-60
2022/01/28 07:31:14;;;;;;;;;;;4.90;99.90;;;;;;5092030;28;19919;-60
2022/01/28 07:33:40;;;;;;;;;;;4.80;99.90;;;;;;5093010;28;20367;-62
2022/01/28 07:36:06;;;;;;;;;;;4.80;99.90;;;;;;5092936;28;19908;-60
2022/01/28 07:38:31;;;;;;;;;;;4.80;99.90;;;;;;5091276;28;20347;-60
2022/01/28 07:40:58;;;;;;;;;;;4.80;99.90;;;;;;5091792;28;19954;-61
2022/01/28 07:43:24;;;;;;;;;;;4.70;99.90;;;;;;5090978;28;20445;-60
2022/01/28 07:45:50;;;;;;;;;;;4.70;99.90;;;;;;5091301;28;19908;-60
2022/01/28 07:48:15;;;;;;;;;;;4.70;99.90;;;;;;5086474;28;20369;-60
2022/01/28 07:50:41;;;;;;;;;;;4.70;99.90;;;;;;5071967;28;19939;-61
2022/01/28 07:53:08;;;;;;;;;;;4.70;99.90;;;;;;5070853;28;19904;-60
2022/01/28 07:55:34;;;;;;;;;;;4.70;99.90;;;;;;5090682;28;19908;-60
2022/01/28 07:57:59;;;;;;;;;;;4.70;99.90;;;;;;5076875;28;19957;-60
2022/01/28 08:00:27;;;;;;;;;;;4.70;99.90;;;;;;5072020;28;19904;-60
2022/01/28 08:02:52;;;;;;;;;;;4.70;99.90;;;;;;5090853;28;19912;-60
2022/01/28 08:05:18;;;;;;;;;;;4.80;99.90;;;;;;5090564;28;19904;-60
2022/01/28 08:07:44;;;;;;;;;;;4.80;99.90;;;;;;5091080;28;19911;-60
2022/01/28 08:10:10;;;;;;;;;;;4.80;99.90;;;;;;5091994;28;19927;-60
2022/01/28 08:12:50;;;;;;;;;;;4.80;99.90;;;;;;5090143;28;20327;-61
2022/01/28 08:15:16;;;;;;;;;;;4.90;99.90;;;;;;5075128;28;19904;-61
2022/01/28 08:17:41;;;;;;;;;;;5.00;99.90;;;;;;5075627;28;19904;-60
2022/01/28 08:20:07;;;;;;;;;;;5.00;99.90;;;;;;5074929;28;19911;-60
2022/01/28 08:22:42;;;;;;;;;;;5.00;99.90;;;;;;5075164;28;20028;-61
2022/01/28 08:25:07;;;;;;;;;;;5.10;99.90;;;;;;5075684;28;19904;-60
2022/01/28 08:27:33;;;;;;;;;;;5.10;99.90;;;;;;5074026;28;20384;-59
2022/01/28 08:29:59;;;;;;;;;;;5.20;99.90;;;;;;5075446;28;19911;-61
2022/01/28 08:32:25;;;;;;;;;;;5.20;99.90;;;;;;5075150;28;19908;-60
2022/01/28 08:34:50;;;;;;;;;;;5.30;99.90;;;;;;5090684;28;19908;-60
2022/01/28 08:37:15;;;;;;;;;;;5.30;99.90;;;;;;5095349;28;20492;-60
2022/01/28 08:39:41;;;;;;;;;;;5.40;99.90;;;;;;5095550;28;19907;-60
2022/01/28 08:42:07;;;;;;;;;;;5.50;99.90;;;;;;5094515;28;19904;-61
2022/01/28 08:44:32;;;;;;;;;;;5.50;99.90;;;;;;5095129;28;19911;-60
2022/01/28 08:46:57;;;;;;;;;;;5.50;99.90;;;;;;5095464;28;19904;-60
2022/01/28 08:49:23;;;;;;;;;;;5.60;99.90;;;;;;5090393;28;19927;-60
2022/01/28 08:51:48;;;;;;;;;;;5.60;99.90;;;;;;5074734;28;19908;-61
2022/01/28 08:54:14;;;;;;;;;;;5.50;99.90;;;;;;5074630;28;19915;-61
2022/01/28 08:56:40;;;;;;;;;;;5.60;99.90;;;;;;5074467;28;19958;-60
2022/01/28 08:59:05;;;;;;;;;;;5.60;99.90;;;;;;5074821;28;19950;-61
2022/01/28 09:01:31;;;;;;;;;;;5.60;99.90;;;;;;5074326;28;20351;-60
2022/01/28 09:03:56;;;;;;;;;;;5.60;99.90;;;;;;5074325;28;19912;-60
2022/01/28 09:06:22;;;;;;;;;;;5.70;99.90;;;;;;5074379;28;19912;-60
2022/01/28 09:08:49;;;;;;;;;;;5.80;99.90;;;;;;5074693;28;19996;-62
2022/01/28 09:13:49;;;;;;;;;;;6.00;99.90;;;;;;5074464;28;19908;-60
2022/01/28 09:16:17;;;;;;;;;;;6.00;99.90;;;;;;5073481;28;20355;-60
2022/01/28 09:18:42;;;;;;;;;;;6.00;99.90;;;;;;5073621;28;19913;-61
2022/01/28 09:21:08;;;;;;;;;;;6.00;99.90;;;;;;5086204;28;19915;-60
2022/01/28 09:23:33;;;;;;;;;;;6.10;99.90;;;;;;5080394;28;20019;-61
2022/01/28 09:25:59;;;;;;;;;;;6.10;99.90;;;;;;5091005;28;19949;-60
2022/01/28 09:28:24;;;;;;;;;;;6.20;99.90;;;;;;5083001;28;20355;-61
2022/01/28 09:30:50;;;;;;;;;;;6.30;99.90;;;;;;5084472;28;20182;-60
2022/01/28 09:33:15;;;;;;;;;;;6.40;99.90;;;;;;5093631;28;19996;-61
2022/01/28 09:35:44;;;;;;;;;;;6.40;99.90;;;;;;5093796;28;19908;-60
2022/01/28 09:38:10;;;;;;;;;;;6.50;99.90;;;;;;5089363;28;19904;-60
2022/01/28 09:40:36;;;;;;;;;;;6.50;99.90;;;;;;5082112;28;19904;-61
2022/01/28 09:43:04;;;;;;;;;;;6.50;99.90;;;;;;5082645;28;19919;-60
2022/01/28 09:45:29;;;;;;;;;;;6.50;99.90;;;;;;5077087;28;19910;-60
2022/01/28 09:47:56;;;;;;;;;;;6.60;99.90;;;;;;5083996;28;20006;-61
2022/01/28 09:50:26;;;;;;;;;;;6.60;99.90;;;;;;5086725;28;19908;-60
2022/01/28 09:52:52;;;;;;;;;;;6.60;99.90;;;;;;5087846;28;19908;-61
2022/01/28 09:55:18;;;;;;;;;;;6.60;99.90;;;;;;5081330;28;19904;-60
2022/01/28 09:57:47;;;;;;;;;;;6.70;99.90;;;;;;5083807;28;19991;-61
2022/01/28 10:00:13;;;;;;;;;;;6.80;99.90;;;;;;5081558;28;20054;-60
2022/01/28 10:03:02;;;;;;;;;;;6.80;99.90;;;;;;5083484;28;19912;-60
2022/01/28 10:05:30;;;;;;;;;;;6.90;99.90;;;;;;5071604;28;19926;-60
2022/01/28 10:08:05;;;;;;;;;;;7.00;99.90;;;;;;5077188;28;19926;-59
2022/01/28 10:10:41;;;;;;;;;;;7.00;99.90;;;;;;5075770;28;20009;-61
2022/01/28 10:13:12;;;;;;;;;;;7.10;99.90;;;;;;5086396;28;19904;-61
2022/01/28 10:15:58;;;;;;;;;;;7.10;99.90;;;;;;5081131;28;19962;-61
2022/01/28 10:18:37;;;;;;;;;;;7.10;99.90;;;;;;5081642;28;19916;-60
2022/01/28 10:21:13;;;;;;;;;;;7.00;99.90;;;;;;5080115;28;20003;-60
2022/01/28 10:23:38;;;;;;;;;;;7.10;99.90;;;;;;5083190;28;19912;-60
2022/01/28 10:26:04;;;;;;;;;;;7.10;99.90;;;;;;5089941;28;20323;-61
2022/01/28 10:28:29;;;;;;;;;;;7.10;99.90;;;;;;5070508;28;19967;-60
2022/01/28 10:30:55;;;;;;;;;;;7.10;99.90;;;;;;5081942;28;19905;-60
2022/01/28 10:33:23;;;;;;;;;;;7.10;99.90;;;;;;5081621;28;19911;-60
2022/01/28 10:35:48;;;;;;;;;;;7.20;99.90;;;;;;5079899;28;20436;-60
2022/01/28 10:38:26;;;;;;;;;;;7.30;99.90;;;;;;5072046;28;19909;-61
2022/01/28 10:41:07;;;;;;;;;;;7.30;99.90;;;;;;5087223;28;19919;-61
2022/01/28 10:43:32;;;;;;;;;;;7.40;99.90;;;;;;5081612;28;20450;-60
2022/01/28 10:46:04;;;;;;;;;;;7.40;99.90;;;;;;5072704;28;19914;-60
2022/01/28 10:48:30;;;;;;;;;;;7.40;99.90;;;;;;5069809;28;19970;-60
2022/01/28 10:50:58;;;;;;;;;;;7.40;99.90;;;;;;5072945;28;19950;-60
2022/01/28 10:53:26;;;;;;;;;;;7.40;99.90;;;;;;5080119;28;19912;-60
2022/01/28 10:55:54;;;;;;;;;;;7.40;99.90;;;;;;5079766;28;19905;-61
2022/01/28 10:58:20;;;;;;;;;;;7.40;99.90;;;;;;5078535;28;19962;-60
2022/01/28 11:00:47;;;;;;;;;;;7.50;99.90;;;;;;5076919;28;19911;-60
2022/01/28 11:03:14;;;;;;;;;;;7.50;99.90;;;;;;5084860;28;20077;-60
2022/01/28 11:05:39;;;;;;;;;;;7.50;99.90;;;;;;5089996;28;19961;-60
2022/01/28 11:08:06;;;;;;;;;;;7.60;99.90;;;;;;5091642;28;20362;-60
2022/01/28 11:10:32;;;;;;;;;;;7.60;99.90;;;;;;5088657;28;19908;-60
2022/01/28 11:12:58;;;;;;;;;;;7.80;99.90;;;;;;5081061;28;19912;-60
2022/01/28 11:15:24;;;;;;;;;;;7.90;99.90;;;;;;5071091;28;19989;-60
2022/01/28 11:17:50;;;;;;;;;;;7.80;99.90;;;;;;5071070;28;19959;-60
2022/01/28 11:20:20;;;;;;;;;;;7.80;99.90;;;;;;5071632;28;20282;-60
2022/01/28 11:22:51;;;;;;;;;;;7.80;99.90;;;;;;5071353;28;20107;-60
2022/01/28 11:25:17;;;;;;;;;;;7.70;99.90;;;;;;5071881;28;20362;-60
2022/01/28 11:27:46;;;;;;;;;;;7.70;99.90;;;;;;5071855;28;19931;-60
2022/01/28 11:30:19;;;;;;;;;;;7.70;99.90;;;;;;5070159;28;19904;-61
2022/01/28 11:33:02;;;;;;;;;;;7.70;99.90;;;;;;5070674;28;20280;-60
2022/01/28 11:35:29;;;;;;;;;;;7.80;99.90;;;;;;5071714;28;19904;-60
2022/01/28 11:38:01;;;;;;;;;;;7.80;99.90;;;;;;5071074;28;19908;-60
2022/01/28 11:40:26;;;;;;;;;;;7.80;99.90;;;;;;5070162;28;19911;-60
2022/01/28 11:43:12;;;;;;;;;;;7.90;99.90;;;;;;5070534;28;20319;-60
2022/01/28 11:45:41;;;;;;;;;;;8.10;99.90;;;;;;5075540;28;19908;-60
2022/01/28 11:48:07;;;;;;;;;;;8.20;99.90;;;;;;5078314;28;19911;-60
2022/01/28 11:50:32;;;;;;;;;;;8.20;99.90;;;;;;5079768;28;19905;-60
2022/01/28 11:52:58;;;;;;;;;;;8.10;95.00;;;;;;5079725;28;19908;-60
2022/01/28 11:55:26;;;;;;;;;;;8.00;98.10;;;;;;5078644;28;19927;-60
2022/01/28 11:57:52;;;;;;;;;;;8.00;96.30;;;;;;5080010;28;19950;-59
2022/01/28 12:00:21;;;;;;;;;;;7.90;97.40;;;;;;5079683;28;20434;-60
2022/01/28 12:02:50;;;;;;;;;;;7.90;95.20;;;;;;5079557;28;19912;-59
2022/01/28 12:05:25;;;;;;;;;;;7.80;97.60;;;;;;5075295;28;20358;-59
2022/01/28 12:07:52;;;;;;;;;;;7.80;99.90;;;;;;5070186;28;19908;-60
2022/01/28 12:10:18;;;;;;;;;;;7.70;98.10;;;;;;5068760;28;19904;-59
2022/01/28 12:12:45;;;;;;;;;;;7.80;97.50;;;;;;5073990;28;19911;-59
2022/01/28 12:15:17;;;;;;;;;;;7.90;94.70;;;;;;5073741;28;19904;-60
2022/01/28 12:17:43;;;;;;;;;;;7.90;97.70;;;;;;5071062;28;20101;-59
2022/01/28 12:20:09;;;;;;;;;;;7.80;95.30;;;;;;5069972;28;19904;-59
2022/01/28 12:22:34;;;;;;;;;;;8.00;95.90;;;;;;5073792;28;19919;-60
2022/01/28 12:25:00;;;;;;;;;;;8.00;96.10;;;;;;5066787;28;20473;-59
2022/01/28 12:27:32;;;;;;;;;;;8.10;95.90;;;;;;5080434;28;19919;-59
2022/01/28 12:30:00;;;;;;;;;;;8.00;93.90;;;;;;5091560;28;19911;-59
2022/01/28 12:32:25;;;;;;;;;;;8.20;99.10;;;;;;5090356;28;19916;-59
2022/01/28 12:34:51;;;;;;;;;;;8.30;97.90;;;;;;5078319;28;19904;-59
2022/01/28 12:37:22;;;;;;;;;;;8.30;94.60;;;;;;5070407;28;19958;-59
2022/01/28 12:39:55;;;;;;;;;;;8.20;92.00;;;;;;5082688;28;19904;-59
2022/01/28 12:42:25;;;;;;;;;;;8.30;95.10;;;;;;5069876;28;19904;-59
2022/01/28 12:44:52;;;;;;;;;;;8.50;97.30;;;;;;5087077;28;20317;-59
2022/01/28 12:47:17;;;;;;;;;;;8.60;98.70;;;;;;5090006;28;20011;-59
2022/01/28 12:49:43;;;;;;;;;;;8.60;92.70;;;;;;5072363;28;20325;-59
2022/01/28 12:52:09;;;;;;;;;;;8.60;91.00;;;;;;5070591;28;19911;-59
2022/01/28 12:54:34;;;;;;;;;;;8.70;91.80;;;;;;5069682;28;20279;-59
2022/01/28 12:57:00;;;;;;;;;;;8.80;92.80;;;;;;5076455;28;19947;-59
2022/01/28 12:59:25;;;;;;;;;;;8.80;90.00;;;;;;5086186;28;20359;-59
2022/01/28 13:01:54;;;;;;;;;;;8.70;87.50;;;;;;5080325;28;20287;-59
2022/01/28 13:04:22;;;;;;;;;;;8.80;91.50;;;;;;5083914;28;19972;-60
2022/01/28 13:09:18;;;;;;;;;;;8.80;87.50;;;;;;5075371;28;20274;-59
2022/01/28 13:11:45;;;;;;;;;;;8.90;84.30;;;;;;5071318;28;19905;-59
2022/01/28 13:14:11;;;;;;;;;;;8.90;89.10;;;;;;5081677;28;19911;-58
2022/01/28 13:16:44;;;;;;;;;;;9.00;88.00;;;;;;5083728;28;20493;-58
2022/01/28 13:19:11;;;;;;;;;;;8.90;86.70;;;;;;5074022;28;19912;-59
2022/01/28 13:21:37;;;;;;;;;;;8.70;84.30;;;;;;5078390;28;19960;-58
2022/01/28 13:24:06;;;;;;;;;;;8.80;86.30;;;;;;5093543;28;19916;-59
2022/01/28 13:26:32;;;;;;;;;;;8.80;86.90;;;;;;5093554;28;19920;-59
2022/01/28 13:29:07;;;;;;;;;;;8.60;85.10;;;;;;5094563;28;19904;-59
2022/01/28 13:31:33;;;;;;;;;;;8.60;87.10;;;;;;5092855;28;19908;-58
2022/01/28 13:34:04;;;;;;;;;;;8.60;84.40;;;;;;5093850;28;19910;-58
2022/01/28 13:36:46;;;;;;;;;;;8.60;88.20;;;;;;5092616;28;19904;-58
2022/01/28 13:39:15;;;;;;;;;;;8.50;87.40;;;;;;5093481;28;19904;-58
2022/01/28 13:41:41;;;;;;;;;;;8.50;91.00;;;;;;5093523;28;19954;-58
2022/01/28 13:44:24;;;;;;;;;;;8.50;92.20;;;;;;5092400;28;19948;-58
2022/01/28 13:46:57;;;;;;;;;;;8.50;91.50;;;;;;5093220;28;20282;-58
2022/01/28 13:49:26;;;;;;;;;;;8.30;90.10;;;;;;5086442;28;20003;-58
2022/01/28 13:51:52;;;;;;;;;;;8.20;91.20;;;;;;5072543;28;19947;-58
2022/01/28 13:54:29;;;;;;;;;;;8.10;91.10;;;;;;5088670;28;19947;-58
2022/01/28 13:56:59;;;;;;;;;;;8.20;93.30;;;;;;5091755;28;19908;-59
2022/01/28 13:59:29;;;;;;;;;;;8.10;93.10;;;;;;5091419;28;19912;-59
2022/01/28 14:01:56;;;;;;;;;;;8.10;96.00;;;;;;5093479;28;19949;-58
2022/01/28 14:04:23;;;;;;;;;;;8.10;99.90;;;;;;5092849;28;19912;-58
2022/01/28 14:06:49;;;;;;;;;;;8.00;96.80;;;;;;5075139;28;19912;-58
2022/01/28 14:09:22;;;;;;;;;;;8.00;95.10;;;;;;5072431;28;19904;-58
2022/01/28 14:11:51;;;;;;;;;;;8.00;97.60;;;;;;5071661;28;19904;-58
2022/01/28 14:14:18;;;;;;;;;;;8.00;95.90;;;;;;5076975;28;19908;-58
2022/01/28 14:16:44;;;;;;;;;;;8.00;96.50;;;;;;5082619;28;19904;-58
2022/01/28 14:19:10;;;;;;;;;;;8.00;98.20;;;;;;5079140;28;20389;-58
2022/01/28 14:21:37;;;;;;;;;;;8.00;97.90;;;;;;5081433;28;19904;-58
2022/01/28 14:24:02;;;;;;;;;;;8.10;98.10;;;;;;5080104;28;20350;-58
2022/01/28 14:26:28;;;;;;;;;;;8.10;97.00;;;;;;5081665;28;19917;-58
2022/01/28 14:31:21;;;;;;;;;;;8.40;99.50;;;;;;5079624;28;19908;-58
2022/01/28 14:33:49;;;;;;;;;;;8.30;96.60;;;;;;5081612;28;19994;-58
2022/01/28 14:36:16;;;;;;;;;;;8.30;96.00;;;;;;5077016;28;19989;-58
2022/01/28 14:38:49;;;;;;;;;;;8.30;96.50;;;;;;5080180;28;20351;-58
2022/01/28 14:41:15;;;;;;;;;;;8.30;96.60;;;;;;5092047;28;19964;-58
2022/01/28 14:43:41;;;;;;;;;;;8.30;94.80;;;;;;5092500;28;20274;-58
2022/01/28 14:46:06;;;;;;;;;;;8.30;94.60;;;;;;5082972;28;19914;-58
2022/01/28 14:48:32;;;;;;;;;;;8.20;94.60;;;;;;5080203;28;20309;-58
2022/01/28 14:50:57;;;;;;;;;;;8.10;96.90;;;;;;5081450;28;19908;-58
2022/01/28 14:53:23;;;;;;;;;;;8.00;97.40;;;;;;5079549;28;19904;-58
2022/01/28 14:55:48;;;;;;;;;;;8.00;98.40;;;;;;5081044;28;19964;-58
2022/01/28 14:58:14;;;;;;;;;;;8.00;98.40;;;;;;5078573;28;19911;-58
2022/01/28 15:00:40;;;;;;;;;;;7.90;98.20;;;;;;5080684;28;20445;-58
2022/01/28 15:03:06;;;;;;;;;;;7.90;98.60;;;;;;5091991;28;19915;-58
2022/01/28 15:05:34;;;;;;;;;;;7.80;99.90;;;;;;5091746;28;20349;-58
2022/01/28 15:07:59;;;;;;;;;;;7.70;99.90;;;;;;5091450;28;19960;-58
2022/01/28 15:10:28;;;;;;;;;;;7.70;99.90;;;;;;5091548;28;19912;-58
2022/01/28 15:12:54;;;;;;;;;;;7.60;99.90;;;;;;5092450;28;19964;-58
2022/01/28 15:15:20;;;;;;;;;;;7.60;99.90;;;;;;5091305;28;19904;-58
2022/01/28 15:17:45;;;;;;;;;;;7.60;99.90;;;;;;5076663;28;19907;-57
2022/01/28 15:20:11;;;;;;;;;;;7.60;99.90;;;;;;5092070;28;19904;-58
2022/01/28 15:22:37;;;;;;;;;;;7.50;99.90;;;;;;5090743;28;19912;-58
2022/01/28 15:25:04;;;;;;;;;;;7.50;99.90;;;;;;5092022;28;19904;-58
2022/01/28 15:27:33;;;;;;;;;;;7.40;99.90;;;;;;5091444;28;19939;-58
2022/01/28 15:30:25;;;;;;;;;;;7.40;99.90;;;;;;5091615;28;19907;-58
2022/01/28 15:35:55;;;;;;;;;;;7.30;99.90;;;;;;5077442;28;19911;-57
2022/01/28 15:38:19;;;;;;;;;;;7.30;99.90;;;;;;5090228;28;19956;-58
2022/01/28 15:40:45;;;;;;;;;;;7.30;99.90;;;;;;5091250;28;19908;-57
2022/01/28 15:43:10;;;;;;;;;;;7.20;99.90;;;;;;5089470;28;20293;-57
2022/01/28 15:45:36;;;;;;;;;;;7.20;99.90;;;;;;5078331;28;19908;-57
2022/01/28 15:48:02;;;;;;;;;;;7.20;99.90;;;;;;5071682;28;19908;-57
2022/01/28 15:50:29;;;;;;;;;;;7.20;99.90;;;;;;5079531;28;20275;-58